Data for 03/07/2017

Time Sea-Level Adjusted Pressure Absolute Pressure Temperature Relative Humidity Dew Point   
(mb) (inHg) (mb) (inHg) (C) (F) (%) (C) (F)
00:05 1010 29.83 839 24.78 -3.8 25.1 48 -13.2 8.2
00:10 1010 29.83 839 24.78 -3.8 25.1 48 -13.2 8.2
00:15 1010 29.83 839 24.78 -3.9 25 50 -12.9 8.7
00:20 1010 29.83 839 24.78 -3.9 24.9 51 -12.8 9
00:25 1010 29.83 839 24.78 -4 24.8 51 -12.7 9.2
00:30 1010 29.83 840 24.81 -3.9 24.9 52 -12.5 9.5
00:35 1010 29.83 840 24.81 -4 24.8 54 -12 10.4
00:40 1011 29.85 840 24.81 -4.2 24.5 59 -11.1 12.1
00:45 1011 29.85 840 24.81 -4.5 23.8 63 -10.5 13
00:50 1011 29.85 840 24.81 -4.8 23.4 66 -10.3 13.5
00:55 1011 29.85 840 24.81 -4.9 23.2 65 -10.4 13.2
01:00 1011 29.85 840 24.81 -4.9 23.2 63 -10.9 12.4
01:05 1011 29.85 840 24.81 -4.9 23.3 61 -11.2 11.9
01:10 1011 29.85 840 24.81 -4.8 23.4 59 -11.5 11.2
01:15 1011 29.85 840 24.81 -4.7 23.6 58 -11.7 10.9
01:20 1011 29.85 840 24.81 -4.6 23.6 58 -11.7 11
01:25 1011 29.85 840 24.81 -4.7 23.6 58 -11.8 10.7
01:30 1011 29.85 840 24.81 -4.7 23.6 58 -11.8 10.8
01:35 1011 29.85 840 24.81 -4.7 23.6 58 -11.7 10.9
01:40 1011 29.85 841 24.83 -4.6 23.7 58 -11.6 11.1
01:45 1011 29.85 841 24.83 -4.6 23.6 59 -11.4 11.5
01:50 1012 29.88 841 24.83 -4.8 23.4 60 -11.3 11.6
01:55 1012 29.88 841 24.83 -4.9 23.3 60 -11.4 11.4
02:00 1012 29.88 841 24.83 -4.8 23.4 59 -11.7 10.9
02:05 1012 29.88 841 24.83 -4.6 23.7 58 -11.6 11.1
02:10 1012 29.88 841 24.83 -4.6 23.7 57 -11.9 10.6
02:15 1012 29.88 841 24.83 -4.6 23.6 56 -12 10.3
02:20 1012 29.88 841 24.83 -4.6 23.7 57 -12 10.5
02:25 1012 29.88 841 24.83 -4.7 23.6 57 -11.9 10.7
02:30 1012 29.88 841 24.83 -4.7 23.5 57 -12.1 10.2
02:35 1012 29.88 842 24.86 -4.8 23.3 57 -12.2 10.1
02:40 1012 29.88 842 24.86 -5 23 58 -11.9 10.5
02:45 1012 29.88 842 24.86 -5.2 22.6 58 -12.3 9.9
02:50 1013 29.91 842 24.86 -5.2 22.6 56 -12.7 9.1
02:55 1013 29.91 842 24.86 -5.2 22.7 55 -12.8 9
03:00 1013 29.91 842 24.86 -5.2 22.7 55 -12.9 8.7
03:05 1013 29.91 842 24.86 -5.2 22.6 56 -12.8 9
03:10 1013 29.91 842 24.86 -5.4 22.3 56 -12.8 9
03:15 1013 29.91 842 24.86 -5.5 22.1 57 -12.7 9.1
03:20 1013 29.91 842 24.86 -5.7 21.8 58 -12.7 9.2
03:25 1013 29.91 842 24.86 -5.8 21.6 58 -12.7 9.1
03:30 1013 29.91 842 24.86 -5.9 21.3 59 -12.7 9.2
03:35 1013 29.91 842 24.86 -6 21.1 59 -12.9 8.8
03:40 1013 29.91 842 24.86 -6.1 21 56 -13.4 7.8
03:45 1013 29.91 842 24.86 -6.3 20.6 55 -14 6.9
03:50 1013 29.91 843 24.89 -6.5 20.4 55 -14.1 6.5
03:55 1013 29.91 843 24.89 -6.6 20.1 55 -14.2 6.4
04:00 1014 29.94 843 24.89 -6.5 20.3 55 -14.2 6.4
04:05 1014 29.94 843 24.89 -6.1 21 53 -14.2 6.4
04:10 1014 29.94 843 24.89 -5.9 21.3 51 -14.5 6
04:15 1014 29.94 843 24.89 -5.8 21.6 50 -14.6 5.7
04:20 1014 29.94 843 24.89 -5.8 21.6 50 -14.6 5.7
04:25 1014 29.94 843 24.89 -5.8 21.5 50 -14.8 5.4
04:30 1014 29.94 843 24.89 -6.2 20.9 50 -15.1 4.9
04:35 1014 29.94 843 24.89 -6.3 20.6 49 -15.4 4.3
04:40 1014 29.94 844 24.92 -6.2 20.8 49 -15.3 4.5
04:45 1014 29.94 844 24.92 -6.3 20.7 50 -15.1 4.8
04:50 1014 29.94 844 24.92 -6.2 20.8 49 -15.3 4.4
04:55 1014 29.94 844 24.92 -6.2 20.9 49 -15.3 4.4
05:00 1015 29.97 844 24.92 -6.1 21.1 48 -15.5 4.1
05:05 1015 29.97 844 24.92 -5.9 21.4 46 -15.7 3.7
05:10 1015 29.97 844 24.92 -5.8 21.6 46 -15.7 3.7
05:15 1015 29.97 844 24.92 -5.8 21.6 45 -15.9 3.4
05:20 1015 29.97 844 24.92 -5.8 21.6 44 -16.2 2.8
05:25 1015 29.97 844 24.92 -5.8 21.6 43 -16.4 2.5
05:30 1015 29.97 844 24.92 -5.8 21.5 42 -16.7 2
05:35 1015 29.97 844 24.92 -5.8 21.6 44 -16.2 2.8
05:40 1015 29.97 844 24.92 -5.9 21.5 44 -16.3 2.7
05:45 1015 29.97 844 24.92 -5.8 21.6 43 -16.4 2.5
05:50 1015 29.97 844 24.92 -5.7 21.7 44 -16.2 2.8
05:55 1015 29.97 844 24.92 -5.8 21.6 44 -16.2 2.9
06:00 1015 29.97 844 24.92 -5.7 21.7 43 -16.6 2.2
06:05 1015 29.97 844 24.92 -5.7 21.7 42 -16.6 2
06:10 1015 29.97 844 24.92 -5.7 21.7 42 -16.6 2
06:15 1015 29.97 844 24.92 -5.8 21.6 43 -16.5 2.4
06:20 1015 29.97 844 24.92 -5.9 21.4 43 -16.5 2.2
06:25 1015 29.97 844 24.92 -6 21.2 44 -16.4 2.5
06:30 1015 29.97 844 24.92 -6 21.2 44 -16.4 2.4
06:35 1015 29.97 844 24.92 -5.9 21.3 43 -16.7 2
06:40 1015 29.97 844 24.92 -5.9 21.4 43 -16.6 2.1
06:45 1015 29.97 844 24.92 -5.9 21.5 42 -16.9 1.5
06:50 1015 29.97 844 24.92 -5.9 21.5 42 -16.8 1.8
06:55 1015 29.97 844 24.92 -5.9 21.4 42 -16.8 1.8
07:00 1015 29.97 844 24.92 -5.9 21.4 42 -16.9 1.6
07:05 1015 29.97 844 24.92 -5.8 21.5 42 -16.9 1.6
07:10 1015 29.97 844 24.92 -5.7 21.7 42 -16.7 2
07:15 1015 29.97 844 24.92 -5.6 21.9 42 -16.6 2.1
07:20 1015 29.97 845 24.95 -5.6 21.9 43 -16.3 2.6
07:25 1015 29.97 845 24.95 -5.5 22 43 -16.2 2.9
07:30 1015 29.97 845 24.95 -5.5 22.2 43 -16.3 2.7
07:35 1015 29.97 845 24.95 -5.2 22.7 43 -15.9 3.3
07:40 1015 29.97 845 24.95 -5 23 41 -16.4 2.6
07:45 1015 29.97 845 24.95 -4.7 23.5 41 -16.1 3
07:50 1016 30 845 24.95 -4.6 23.8 40 -16.1 3
07:55 1016 30 845 24.95 -4.4 24.2 39 -16.4 2.5
08:00 1016 30 845 24.95 -4.3 24.3 39 -16.2 2.9
08:05 1016 30 845 24.95 -4.2 24.5 39 -16.1 3
08:10 1016 30 845 24.95 -4.2 24.4 39 -16.3 2.7
08:15 1016 30 845 24.95 -4 24.8 37 -16.7 1.9
08:20 1016 30 845 24.95 -3.9 25.1 38 -16.1 3
08:25 1016 30 846 24.98 -3.8 25.1 38 -16.2 2.8
08:30 1016 30 846 24.98 -3.8 25.2 39 -15.8 3.5
08:35 1016 30 846 24.98 -3.7 25.3 40 -15.5 4.1
08:40 1017 30.03 846 24.98 -3.6 25.5 39 -15.6 3.9
08:45 1017 30.03 846 24.98 -3.6 25.6 39 -15.5 4
08:50 1017 30.03 846 24.98 -3.5 25.8 39 -15.4 4.3
08:55 1017 30.03 846 24.98 -3.4 25.9 40 -15.2 4.6
09:00 1017 30.03 846 24.98 -3.4 25.9 40 -15.1 4.8
09:05 1017 30.03 846 24.98 -3.4 25.8 39 -15.4 4.2
09:10 1017 30.03 846 24.98 -3 26.6 37 -15.7 3.7
09:15 1017 30.03 846 24.98 -2.4 27.6 37 -15.3 4.4
09:20 1017 30.03 846 24.98 -2.1 28.2 37 -15 4.9
09:25 1017 30.03 846 24.98 -2 28.5 37 -14.8 5.4
09:30 1017 30.03 846 24.98 -2 28.5 38 -14.4 6
09:35 1017 30.03 846 24.98 -1.9 28.5 38 -14.3 6.2
09:40 1017 30.03 846 24.98 -1.9 28.5 39 -14.1 6.7
09:45 1017 30.03 846 24.98 -1.7 28.9 38 -14.4 6
09:50 1017 30.03 846 24.98 -1.8 28.8 38 -14.3 6.3
09:55 1017 30.03 846 24.98 -1.7 29 39 -14 6.8
10:00 1017 30.03 846 24.98 -1.6 29.1 39 -14 6.9
10:05 1017 30.03 846 24.98 -1.6 29.1 40 -13.4 7.9
10:10 1017 30.03 846 24.98 -1.6 29.1 41 -13.3 8.1
10:15 1017 30.03 846 24.98 -1.8 28.8 42 -13 8.6
10:20 1017 30.03 846 24.98 -1.7 28.9 42 -13 8.5
10:25 1017 30.03 846 24.98 -1.6 29.1 40 -13.6 7.4
10:30 1017 30.03 846 24.98 -1.5 29.2 38 -14.2 6.4
10:35 1017 30.03 846 24.98 -1.2 29.8 37 -14.2 6.4
10:40 1017 30.03 846 24.98 -1 30.3 37 -14 6.7
10:45 1017 30.03 846 24.98 -0.9 30.4 34 -15 5
10:50 1017 30.03 846 24.98 -0.8 30.5 34 -14.9 5.1
10:55 1017 30.03 846 24.98 -0.7 30.7 34 -14.8 5.3
11:00 1017 30.03 846 24.98 -0.7 30.7 33 -15 5.1
11:05 1017 30.03 846 24.98 -0.7 30.7 33 -15 5
11:10 1017 30.03 846 24.98 -0.7 30.7 32 -15.6 3.8
11:15 1017 30.03 846 24.98 -0.8 30.6 35 -14.6 5.7
11:20 1017 30.03 846 24.98 -0.7 30.7 34 -14.8 5.3
11:25 1017 30.03 846 24.98 -0.6 31 32 -15.2 4.6
11:30 1017 30.03 846 24.98 -0.5 31.2 33 -15 5.1
11:35 1017 30.03 846 24.98 -0.2 31.6 34 -14.3 6.3
11:40 1017 30.03 846 24.98 -0.3 31.5 36 -13.7 7.4
11:45 1017 30.03 847 25.01 -0.2 31.6 35 -13.8 7.2
11:50 1017 30.03 847 25.01 -0 32 36 -13.2 8.2
11:55 1017 30.03 847 25.01 -0 32 35 -13.8 7.2
12:00 1017 30.03 847 25.01 -0.1 31.9 37 -13.2 8.3
12:05 1017 30.03 846 24.98 0.1 32.1 36 -13.2 8.2
12:10 1017 30.03 847 25.01 0.3 32.5 34 -13.7 7.3
12:15 1017 30.03 847 25.01 0.3 32.6 36 -13.2 8.2
12:20 1017 30.03 847 25.01 0.5 32.9 34 -13.8 7.2
12:25 1017 30.03 847 25.01 0.8 33.4 34 -13.2 8.2
12:30 1017 30.03 847 25.01 0.7 33.3 35 -13.1 8.5
12:35 1017 30.03 847 25.01 0.7 33.3 36 -12.6 9.4
12:40 1017 30.03 847 25.01 1.2 34.1 34 -12.9 8.7
12:45 1017 30.03 847 25.01 1 33.8 36 -12.5 9.4
12:50 1017 30.03 846 24.98 0.9 33.6 35 -12.8 9
12:55 1017 30.03 846 24.98 1 33.8 36 -12.6 9.4
13:00 1017 30.03 846 24.98 1.4 34.6 33 -13.1 8.4
13:05 1017 30.03 846 24.98 1.7 35.1 32 -13.2 8.2
13:10 1017 30.03 846 24.98 1.7 35.1 32 -13.1 8.3
13:15 1017 30.03 846 24.98 1.7 35 33 -12.8 8.9
13:20 1017 30.03 846 24.98 1.3 34.3 36 -12.3 9.9
13:25 1017 30.03 846 24.98 1.3 34.3 33 -13.2 8.3
13:30 1017 30.03 846 24.98 1.1 34.1 33 -13.3 8
13:35 1017 30.03 846 24.98 1.3 34.4 33 -13.3 8
13:40 1017 30.03 846 24.98 1.4 34.5 34 -13 8.6
13:45 1017 30.03 846 24.98 1.5 34.7 37 -11.9 10.6
13:50 1017 30.03 846 24.98 1.5 34.7 35 -12.3 9.8
13:55 1017 30.03 846 24.98 1.5 34.8 35 -12.4 9.6
14:00 1017 30.03 846 24.98 1.7 35.1 35 -12.1 10.2
14:05 1017 30.03 846 24.98 1.6 34.8 37 -11.7 10.9
14:10 1017 30.03 846 24.98 1.9 35.3 36 -11.8 10.8
14:15 1017 30.03 846 24.98 1.9 35.4 35 -11.9 10.6
14:20 1017 30.03 846 24.98 2.1 35.8 34 -12.1 10.2
14:25 1017 30.03 846 24.98 1.9 35.4 34 -12.4 9.7
14:30 1017 30.03 846 24.98 2 35.7 35 -12 10.4
14:35 1017 30.03 846 24.98 2.2 35.9 36 -11.3 11.6
14:40 1017 30.03 846 24.98 2.6 36.7 35 -11.3 11.6
14:45 1017 30.03 846 24.98 2.8 37 35 -11.2 11.8
14:50 1017 30.03 846 24.98 2.4 36.3 35 -11.7 11
14:55 1017 30.03 846 24.98 2.2 35.9 36 -11.5 11.3
15:00 1017 30.03 846 24.98 2.2 35.9 36 -11.3 11.7
15:05 1017 30.03 846 24.98 2.1 35.8 37 -11.2 11.8
15:10 1017 30.03 846 24.98 2 35.7 38 -11 12.2
15:15 1017 30.03 846 24.98 2.2 36 37 -11.1 12
15:20 1017 30.03 846 24.98 2.3 36.1 37 -11.1 12
15:25 1017 30.03 846 24.98 2.3 36.1 38 -10.7 12.8
15:30 1017 30.03 846 24.98 2.2 35.9 38 -10.8 12.6
15:35 1017 30.03 846 24.98 2.3 36.1 37 -11.1 12.1
15:40 1017 30.03 846 24.98 2.3 36.1 36 -11.5 11.3
15:45 1017 30.03 846 24.98 2.3 36.1 34 -11.9 10.5
15:50 1017 30.03 846 24.98 2.4 36.3 37 -10.9 12.3
15:55 1017 30.03 846 24.98 2.4 36.3 37 -10.8 12.5
16:00 1017 30.03 846 24.98 2.3 36.2 37 -10.9 12.5
16:05 1017 30.03 846 24.98 2.4 36.3 38 -10.7 12.8
16:10 1017 30.03 846 24.98 2.6 36.8 37 -10.5 13.1
16:15 1017 30.03 846 24.98 2.5 36.6 36 -11 12.2
16:20 1017 30.03 846 24.98 2.6 36.6 36 -11 12.2
16:25 1017 30.03 846 24.98 2.3 36.2 37 -11 12.2
16:30 1017 30.03 846 24.98 2.3 36.1 38 -10.7 12.8
16:35 1017 30.03 846 24.98 2.3 36.2 37 -10.9 12.3
16:40 1017 30.03 846 24.98 2.3 36.1 38 -10.8 12.6
16:45 1017 30.03 846 24.98 2.2 35.9 36 -11.3 11.6
16:50 1017 30.03 846 24.98 2.1 35.7 38 -10.8 12.5
16:55 1016 30 846 24.98 2.2 35.9 40 -10.1 13.7
17:00 1016 30 846 24.98 2.2 35.9 39 -10.5 13.1
17:05 1016 30 846 24.98 2.2 35.9 40 -10 13.9
17:10 1016 30 846 24.98 2.2 36 39 -10.3 13.5
17:15 1016 30 846 24.98 2.1 35.8 40 -10.2 13.7
17:20 1016 30 846 24.98 2.1 35.7 40 -10 13.9
17:25 1016 30 845 24.95 2 35.6 40 -10.2 13.6
17:30 1016 30 845 24.95 2 35.5 41 -9.8 14.3
17:35 1016 30 845 24.95 1.9 35.4 41 -9.9 14.2
17:40 1016 30 846 24.98 1.8 35.2 43 -9.4 15
17:45 1016 30 846 24.98 1.8 35.3 43 -9.4 15.1
17:50 1016 30 846 24.98 1.9 35.4 43 -9.3 15.2
17:55 1016 30 846 24.98 1.9 35.5 45 -8.9 16
18:00 1016 30 846 24.98 1.9 35.5 44 -9.1 15.6
18:05 1016 30 845 24.95 1.8 35.3 44 -9.1 15.6
18:10 1016 30 845 24.95 1.7 35.1 45 -9 15.8
18:15 1016 30 845 24.95 1.6 34.9 45 -9.1 15.7
18:20 1016 30 845 24.95 1.6 34.9 45 -9.1 15.7
18:25 1016 30 845 24.95 1.6 34.8 45 -9 15.8
18:30 1016 30 845 24.95 1.5 34.7 45 -9.1 15.6
18:35 1016 30 845 24.95 1.4 34.5 45 -9.1 15.5
18:40 1016 30 845 24.95 1.4 34.4 45 -9.3 15.3
18:45 1016 30 845 24.95 1.3 34.4 45 -9.4 15.1
18:50 1016 30 845 24.95 1.3 34.3 46 -9.3 15.3
18:55 1016 30 845 24.95 1.3 34.3 45 -9.4 15.1
19:00 1016 30 845 24.95 1.2 34.2 45 -9.4 15.1
19:05 1016 30 845 24.95 1.2 34.1 45 -9.6 14.7
19:10 1016 30 845 24.95 1.1 33.9 44 -9.8 14.4
19:15 1016 30 845 24.95 1.1 33.9 44 -10 14.1
19:20 1016 30 845 24.95 1.1 33.9 44 -9.9 14.2
19:25 1016 30 845 24.95 1 33.8 44 -10.1 13.9
19:30 1016 30 845 24.95 1 33.8 43 -10.3 13.5
19:35 1016 30 845 24.95 0.9 33.7 43 -10.2 13.6
19:40 1016 30 845 24.95 0.9 33.7 38 -12 10.5
19:45 1016 30 845 24.95 1.2 34.2 38 -11.4 11.4
19:50 1016 30 845 24.95 1.3 34.3 40 -10.9 12.3
19:55 1016 30 845 24.95 1.1 34 39 -11.2 11.8
20:00 1016 30 845 24.95 1.1 33.9 38 -11.6 11.2
20:05 1016 30 845 24.95 1.1 34 40 -11.1 12
20:10 1016 30 845 24.95 1.1 34 39 -11.4 11.6
20:15 1016 30 845 24.95 1.1 34 38 -11.7 11
20:20 1016 30 845 24.95 1.1 34 38 -11.8 10.7
20:25 1015 29.97 845 24.95 1.3 34.3 38 -11.7 11
20:30 1015 29.97 845 24.95 1.3 34.4 37 -11.7 11
20:35 1015 29.97 845 24.95 1.3 34.3 43 -10.1 13.8
20:40 1015 29.97 845 24.95 0.5 32.9 47 -9.6 14.7
20:45 1015 29.97 845 24.95 0 32 46 -10.3 13.5
20:50 1015 29.97 844 24.92 -0.1 31.8 46 -10.3 13.5
20:55 1015 29.97 844 24.92 -0.1 31.8 47 -10.3 13.5
21:00 1015 29.97 844 24.92 -0.2 31.6 47 -10.2 13.6
21:05 1015 29.97 844 24.92 -0.3 31.5 48 -10.1 13.9
21:10 1015 29.97 844 24.92 -0.4 31.3 48 -10.2 13.6
21:15 1015 29.97 844 24.92 -0.5 31.2 49 -10 14
21:20 1015 29.97 844 24.92 -0.5 31 49 -10.1 13.8
21:25 1015 29.97 844 24.92 -0.6 31 50 -9.8 14.4
21:30 1015 29.97 844 24.92 -0.7 30.8 50 -9.8 14.3
21:35 1015 29.97 844 24.92 -0.8 30.6 51 -9.8 14.4
21:40 1015 29.97 844 24.92 -0.8 30.6 50 -10.1 13.9
21:45 1015 29.97 844 24.92 -0.7 30.7 50 -9.8 14.4
21:50 1015 29.97 844 24.92 -0.5 31.1 46 -10.7 12.7
21:55 1015 29.97 844 24.92 -0.1 31.7 46 -10.4 13.3
22:00 1015 29.97 844 24.92 -0.3 31.5 47 -10.2 13.7
22:05 1015 29.97 844 24.92 -0.4 31.4 47 -10.3 13.4
22:10 1015 29.97 844 24.92 -0.2 31.6 46 -10.4 13.2
22:15 1015 29.97 844 24.92 -0.1 31.7 47 -10.3 13.5
22:20 1015 29.97 844 24.92 -0.1 31.9 46 -10.3 13.5
22:25 1015 29.97 844 24.92 -0 32 47 -10.1 13.8
22:30 1015 29.97 844 24.92 0.2 32.4 46 -10.1 13.9
22:35 1015 29.97 844 24.92 0.4 32.8 46 -9.9 14.2
22:40 1015 29.97 844 24.92 0.5 32.9 45 -10.1 13.8
22:45 1015 29.97 844 24.92 0.4 32.7 47 -9.7 14.6
22:50 1015 29.97 844 24.92 0.3 32.6 47 -9.8 14.4
22:55 1015 29.97 844 24.92 0.4 32.7 45 -10.2 13.7
23:00 1014 29.94 844 24.92 0.5 33 46 -9.8 14.4
23:05 1014 29.94 844 24.92 0.3 32.6 47 -9.7 14.5
23:10 1014 29.94 844 24.92 0.2 32.4 47 -9.8 14.4
23:15 1014 29.94 844 24.92 0.2 32.3 48 -9.7 14.6
23:20 1014 29.94 844 24.92 0.1 32.2 48 -9.6 14.7
23:25 1014 29.94 843 24.89 -0.1 31.9 48 -9.7 14.5
23:30 1014 29.94 843 24.89 -0.1 31.9 47 -10 14.1
23:35 1014 29.94 843 24.89 0.1 32.1 47 -10 14
23:40 1014 29.94 843 24.89 -0 32 49 -9.6 14.7
23:45 1014 29.94 843 24.89 -0.1 31.7 48 -9.9 14.1
23:50 1014 29.94 843 24.89 0 32.1 48 -9.8 14.4
23:55 1014 29.94 843 24.89 0 32 48 -9.8 14.4
24:00 1014 29.94 843 24.89 -0 32 48 -9.7 14.6